sensor_id;sensor_type;location;lat;lon;timestamp;pressure;altitude;pressure_sealevel;temperature;humidity
12054;BME280;5638;50.860;4.698;2022-10-17T00:00:48;101084.91;;;16.15;nan
12054;BME280;5638;50.860;4.698;2022-10-17T00:03:15;101087.31;;;16.21;nan
12054;BME280;5638;50.860;4.698;2022-10-17T00:05:44;101089.91;;;16.21;nan
12054;BME280;5638;50.860;4.698;2022-10-17T00:08:14;101089.91;;;16.21;nan
12054;BME280;5638;50.860;4.698;2022-10-17T00:10:41;101091.50;;;16.25;nan
12054;BME280;5638;50.860;4.698;2022-10-17T00:13:09;101087.31;;;16.21;nan
12054;BME280;5638;50.860;4.698;2022-10-17T00:15:35;101088.97;;;16.24;nan
12054;BME280;5638;50.860;4.698;2022-10-17T00:18:01;101096.91;;;16.21;nan
12054;BME280;5638;50.860;4.698;2022-10-17T00:20:27;101089.22;;;16.16;nan
12054;BME280;5638;50.860;4.698;2022-10-17T00:22:55;101100.00;;;16.32;nan
12054;BME280;5638;50.860;4.698;2022-10-17T00:25:21;101098.34;;;16.29;nan
12054;BME280;5638;50.860;4.698;2022-10-17T00:27:47;101098.75;;;16.17;nan
12054;BME280;5638;50.860;4.698;2022-10-17T00:30:15;101103.22;;;16.13;nan
12054;BME280;5638;50.860;4.698;2022-10-17T00:32:41;101099.88;;;16.10;nan
12054;BME280;5638;50.860;4.698;2022-10-17T00:35:08;101099.16;;;16.05;nan
12054;BME280;5638;50.860;4.698;2022-10-17T00:37:35;101102.03;;;15.97;nan
12054;BME280;5638;50.860;4.698;2022-10-17T00:40:01;101097.81;;;15.93;nan
12054;BME280;5638;50.860;4.698;2022-10-17T00:42:27;101090.94;;;15.90;nan
12054;BME280;5638;50.860;4.698;2022-10-17T00:45:21;101098.78;;;15.90;nan
12054;BME280;5638;50.860;4.698;2022-10-17T00:47:55;101105.66;;;15.93;nan
12054;BME280;5638;50.860;4.698;2022-10-17T00:50:23;101086.94;;;15.80;nan
12054;BME280;5638;50.860;4.698;2022-10-17T00:52:51;101094.75;;;15.80;nan
12054;BME280;5638;50.860;4.698;2022-10-17T00:55:30;101097.56;;;15.74;nan
12054;BME280;5638;50.860;4.698;2022-10-17T00:57:59;101095.09;;;15.69;nan
12054;BME280;5638;50.860;4.698;2022-10-17T01:00:27;101093.47;;;15.65;nan
12054;BME280;5638;50.860;4.698;2022-10-17T01:02:53;101087.53;;;15.60;nan
12054;BME280;5638;50.860;4.698;2022-10-17T01:05:20;101096.16;;;15.62;nan
12054;BME280;5638;50.860;4.698;2022-10-17T01:07:49;101086.72;;;15.58;nan
12054;BME280;5638;50.860;4.698;2022-10-17T01:10:17;101086.56;;;15.63;nan
12054;BME280;5638;50.860;4.698;2022-10-17T01:15:49;101093.19;;;15.75;nan
12054;BME280;5638;50.860;4.698;2022-10-17T01:31:11;101102.19;;;16.19;nan
12054;BME280;5638;50.860;4.698;2022-10-17T01:36:45;101097.59;;;16.51;nan
12054;BME280;5638;50.860;4.698;2022-10-17T01:39:48;101088.22;;;16.70;nan
12054;BME280;5638;50.860;4.698;2022-10-17T01:42:25;101100.75;;;16.85;nan
12054;BME280;5638;50.860;4.698;2022-10-17T01:45:12;101092.47;;;16.98;nan
12054;BME280;5638;50.860;4.698;2022-10-17T01:47:41;101092.13;;;17.07;nan
12054;BME280;5638;50.860;4.698;2022-10-17T01:50:18;101092.63;;;17.16;nan
12054;BME280;5638;50.860;4.698;2022-10-17T01:52:53;101097.19;;;17.33;nan
12054;BME280;5638;50.860;4.698;2022-10-17T01:55:35;101094.69;;;17.30;nan
12054;BME280;5638;50.860;4.698;2022-10-17T01:58:10;101093.34;;;17.43;nan
12054;BME280;5638;50.860;4.698;2022-10-17T02:00:41;101096.97;;;17.39;nan
12054;BME280;5638;50.860;4.698;2022-10-17T02:03:16;101086.63;;;17.36;nan
12054;BME280;5638;50.860;4.698;2022-10-17T02:05:45;101079.34;;;17.45;nan
12054;BME280;5638;50.860;4.698;2022-10-17T02:08:12;101090.28;;;17.54;nan
12054;BME280;5638;50.860;4.698;2022-10-17T02:10:50;101079.69;;;17.57;nan
12054;BME280;5638;50.860;4.698;2022-10-17T02:27:59;101061.50;;;17.54;nan
12054;BME280;5638;50.860;4.698;2022-10-17T02:30:52;101075.97;;;17.63;nan
12054;BME280;5638;50.860;4.698;2022-10-17T02:33:30;101078.59;;;17.63;nan
12054;BME280;5638;50.860;4.698;2022-10-17T02:36:03;101084.38;;;17.71;nan
12054;BME280;5638;50.860;4.698;2022-10-17T02:38:31;101076.63;;;17.68;nan
12054;BME280;5638;50.860;4.698;2022-10-17T02:40:59;101083.59;;;17.69;nan
12054;BME280;5638;50.860;4.698;2022-10-17T02:43:27;101093.72;;;17.78;nan
12054;BME280;5638;50.860;4.698;2022-10-17T02:45:54;101082.78;;;17.67;nan
12054;BME280;5638;50.860;4.698;2022-10-17T02:48:41;101085.53;;;17.64;nan
12054;BME280;5638;50.860;4.698;2022-10-17T02:51:41;101096.50;;;17.74;nan
12054;BME280;5638;50.860;4.698;2022-10-17T02:54:57;101091.75;;;17.83;nan
12054;BME280;5638;50.860;4.698;2022-10-17T02:57:37;101084.56;;;17.88;nan
12054;BME280;5638;50.860;4.698;2022-10-17T03:00:08;101089.03;;;17.86;nan
12054;BME280;5638;50.860;4.698;2022-10-17T03:02:43;101094.16;;;17.89;nan
12054;BME280;5638;50.860;4.698;2022-10-17T03:05:13;101107.47;;;17.83;nan
12054;BME280;5638;50.860;4.698;2022-10-17T03:07:39;101102.13;;;17.86;nan
12054;BME280;5638;50.860;4.698;2022-10-17T03:10:06;101105.16;;;17.76;nan
12054;BME280;5638;50.860;4.698;2022-10-17T03:12:31;101093.28;;;17.89;nan
12054;BME280;5638;50.860;4.698;2022-10-17T03:14:57;101079.47;;;17.85;nan
12054;BME280;5638;50.860;4.698;2022-10-17T03:17:23;101102.22;;;17.83;nan
12054;BME280;5638;50.860;4.698;2022-10-17T03:19:49;101101.63;;;17.99;nan
12054;BME280;5638;50.860;4.698;2022-10-17T03:22:15;101100.16;;;17.91;nan
12054;BME280;5638;50.860;4.698;2022-10-17T03:24:40;101109.78;;;17.91;nan
12054;BME280;5638;50.860;4.698;2022-10-17T03:27:06;101093.44;;;18.06;nan
12054;BME280;5638;50.860;4.698;2022-10-17T03:29:32;101089.56;;;17.95;nan
12054;BME280;5638;50.860;4.698;2022-10-17T03:31:58;101101.72;;;17.96;nan
12054;BME280;5638;50.860;4.698;2022-10-17T03:34:23;101089.00;;;18.08;nan
12054;BME280;5638;50.860;4.698;2022-10-17T03:36:49;101092.72;;;18.03;nan
12054;BME280;5638;50.860;4.698;2022-10-17T03:39:15;101088.75;;;17.92;nan
12054;BME280;5638;50.860;4.698;2022-10-17T03:41:41;101083.00;;;17.84;nan
12054;BME280;5638;50.860;4.698;2022-10-17T03:44:07;101090.72;;;17.87;nan
12054;BME280;5638;50.860;4.698;2022-10-17T03:46:32;101094.81;;;17.95;nan
12054;BME280;5638;50.860;4.698;2022-10-17T03:48:58;101089.16;;;17.83;nan
12054;BME280;5638;50.860;4.698;2022-10-17T03:51:24;101100.28;;;17.88;nan
12054;BME280;5638;50.860;4.698;2022-10-17T03:53:50;101104.53;;;17.91;nan
12054;BME280;5638;50.860;4.698;2022-10-17T03:56:24;101099.72;;;18.02;nan
12054;BME280;5638;50.860;4.698;2022-10-17T03:58:50;101107.59;;;18.02;nan
12054;BME280;5638;50.860;4.698;2022-10-17T04:01:17;101101.31;;;18.06;nan
12054;BME280;5638;50.860;4.698;2022-10-17T04:03:49;101112.88;;;18.21;nan
12054;BME280;5638;50.860;4.698;2022-10-17T04:06:16;101114.72;;;17.99;nan
12054;BME280;5638;50.860;4.698;2022-10-17T04:08:42;101117.06;;;18.05;nan
12054;BME280;5638;50.860;4.698;2022-10-17T04:11:10;101102.78;;;17.91;nan
12054;BME280;5638;50.860;4.698;2022-10-17T04:13:38;101119.22;;;17.95;nan
12054;BME280;5638;50.860;4.698;2022-10-17T04:16:14;101117.56;;;17.92;nan
12054;BME280;5638;50.860;4.698;2022-10-17T04:18:41;101135.47;;;18.03;nan
12054;BME280;5638;50.860;4.698;2022-10-17T04:21:09;101135.16;;;18.11;nan
12054;BME280;5638;50.860;4.698;2022-10-17T04:23:35;101133.31;;;18.13;nan
12054;BME280;5638;50.860;4.698;2022-10-17T04:26:04;101138.06;;;18.03;nan
12054;BME280;5638;50.860;4.698;2022-10-17T04:28:31;101135.47;;;18.03;nan
12054;BME280;5638;50.860;4.698;2022-10-17T04:31:05;101137.34;;;18.00;nan
12054;BME280;5638;50.860;4.698;2022-10-17T04:33:32;101141.53;;;18.04;nan
12054;BME280;5638;50.860;4.698;2022-10-17T04:36:09;101150.78;;;18.12;nan
12054;BME280;5638;50.860;4.698;2022-10-17T04:38:36;101144.16;;;18.04;nan
12054;BME280;5638;50.860;4.698;2022-10-17T04:41:05;101146.66;;;18.07;nan
12054;BME280;5638;50.860;4.698;2022-10-17T04:43:35;101144.97;;;18.06;nan
12054;BME280;5638;50.860;4.698;2022-10-17T04:46:04;101136.44;;;18.01;nan
12054;BME280;5638;50.860;4.698;2022-10-17T04:48:31;101143.78;;;18.13;nan
12054;BME280;5638;50.860;4.698;2022-10-17T04:51:05;101140.25;;;18.14;nan
12054;BME280;5638;50.860;4.698;2022-10-17T04:53:36;101143.00;;;18.11;nan
12054;BME280;5638;50.860;4.698;2022-10-17T04:56:18;101139.03;;;18.01;nan
12054;BME280;5638;50.860;4.698;2022-10-17T04:58:45;101135.78;;;17.96;nan
12054;BME280;5638;50.860;4.698;2022-10-17T05:01:15;101141.13;;;17.92;nan
12054;BME280;5638;50.860;4.698;2022-10-17T05:03:41;101149.31;;;18.05;nan
12054;BME280;5638;50.860;4.698;2022-10-17T05:06:17;101156.16;;;18.09;nan
12054;BME280;5638;50.860;4.698;2022-10-17T05:08:44;101158.41;;;17.97;nan
12054;BME280;5638;50.860;4.698;2022-10-17T05:11:26;101155.94;;;18.14;nan
12054;BME280;5638;50.860;4.698;2022-10-17T05:13:58;101161.25;;;18.12;nan
12054;BME280;5638;50.860;4.698;2022-10-17T05:16:26;101160.53;;;18.09;nan
12054;BME280;5638;50.860;4.698;2022-10-17T05:18:56;101149.22;;;18.08;nan
12054;BME280;5638;50.860;4.698;2022-10-17T05:21:25;101170.28;;;18.05;nan
12054;BME280;5638;50.860;4.698;2022-10-17T05:23:51;101160.41;;;18.12;nan
12054;BME280;5638;50.860;4.698;2022-10-17T05:26:18;101169.38;;;18.06;nan
12054;BME280;5638;50.860;4.698;2022-10-17T05:28:44;101158.06;;;18.06;nan
12054;BME280;5638;50.860;4.698;2022-10-17T05:31:11;101166.06;;;18.23;nan
12054;BME280;5638;50.860;4.698;2022-10-17T05:33:38;101166.44;;;18.14;nan
12054;BME280;5638;50.860;4.698;2022-10-17T05:36:05;101176.56;;;18.23;nan
12054;BME280;5638;50.860;4.698;2022-10-17T05:38:32;101170.69;;;18.16;nan
12054;BME280;5638;50.860;4.698;2022-10-17T05:41:00;101172.53;;;18.14;nan
12054;BME280;5638;50.860;4.698;2022-10-17T05:43:27;101179.78;;;18.08;nan
12054;BME280;5638;50.860;4.698;2022-10-17T05:45:53;101173.41;;;18.15;nan
12054;BME280;5638;50.860;4.698;2022-10-17T05:48:23;101182.06;;;18.37;nan
12054;BME280;5638;50.860;4.698;2022-10-17T05:51:01;101185.56;;;18.16;nan
12054;BME280;5638;50.860;4.698;2022-10-17T05:53:34;101187.81;;;18.25;nan
12054;BME280;5638;50.860;4.698;2022-10-17T05:56:04;101186.09;;;18.24;nan
12054;BME280;5638;50.860;4.698;2022-10-17T05:58:31;101186.53;;;18.35;nan
12054;BME280;5638;50.860;4.698;2022-10-17T06:01:04;101176.22;;;18.31;nan
12054;BME280;5638;50.860;4.698;2022-10-17T06:03:31;101190.56;;;18.42;nan
12054;BME280;5638;50.860;4.698;2022-10-17T06:06:07;101184.34;;;18.25;nan
12054;BME280;5638;50.860;4.698;2022-10-17T06:08:33;101190.13;;;18.33;nan
12054;BME280;5638;50.860;4.698;2022-10-17T06:10:59;101188.59;;;18.27;nan
12054;BME280;5638;50.860;4.698;2022-10-17T06:13:25;101179.28;;;18.20;nan
12054;BME280;5638;50.860;4.698;2022-10-17T06:15:51;101193.50;;;18.35;nan
12054;BME280;5638;50.860;4.698;2022-10-17T06:18:17;101189.66;;;18.23;nan
12054;BME280;5638;50.860;4.698;2022-10-17T06:20:43;101190.41;;;18.25;nan
12054;BME280;5638;50.860;4.698;2022-10-17T06:23:08;101190.13;;;18.33;nan
12054;BME280;5638;50.860;4.698;2022-10-17T06:25:34;101184.41;;;18.23;nan
12054;BME280;5638;50.860;4.698;2022-10-17T06:28:00;101180.78;;;18.48;nan
12054;BME280;5638;50.860;4.698;2022-10-17T06:30:26;101182.19;;;18.34;nan
12054;BME280;5638;50.860;4.698;2022-10-17T06:32:52;101201.38;;;18.35;nan
12054;BME280;5638;50.860;4.698;2022-10-17T06:35:19;101217.59;;;18.23;nan
12054;BME280;5638;50.860;4.698;2022-10-17T06:37:45;101231.28;;;18.29;nan
12054;BME280;5638;50.860;4.698;2022-10-17T06:40:12;101232.22;;;18.28;nan
12054;BME280;5638;50.860;4.698;2022-10-17T06:42:39;101249.97;;;18.42;nan
12054;BME280;5638;50.860;4.698;2022-10-17T06:45:07;101252.13;;;18.32;nan
12054;BME280;5638;50.860;4.698;2022-10-17T06:47:34;101269.16;;;18.42;nan
12054;BME280;5638;50.860;4.698;2022-10-17T06:50:00;101266.75;;;18.38;nan
12054;BME280;5638;50.860;4.698;2022-10-17T06:52:26;101269.91;;;18.46;nan
12054;BME280;5638;50.860;4.698;2022-10-17T06:54:52;101276.56;;;18.33;nan
12054;BME280;5638;50.860;4.698;2022-10-17T06:57:18;101280.94;;;18.32;nan
12054;BME280;5638;50.860;4.698;2022-10-17T06:59:44;101303.28;;;18.63;nan
12054;BME280;5638;50.860;4.698;2022-10-17T07:02:10;101297.50;;;18.55;nan
12054;BME280;5638;50.860;4.698;2022-10-17T07:04:36;101300.63;;;18.64;nan
12054;BME280;5638;50.860;4.698;2022-10-17T07:07:03;101300.00;;;18.58;nan
12054;BME280;5638;50.860;4.698;2022-10-17T07:09:30;101297.69;;;18.72;nan
12054;BME280;5638;50.860;4.698;2022-10-17T07:11:56;101308.06;;;18.75;nan
12054;BME280;5638;50.860;4.698;2022-10-17T07:14:22;101304.31;;;18.59;nan
12054;BME280;5638;50.860;4.698;2022-10-17T07:16:48;101316.47;;;18.61;nan
12054;BME280;5638;50.860;4.698;2022-10-17T07:19:14;101336.25;;;18.70;nan
12054;BME280;5638;50.860;4.698;2022-10-17T07:21:40;101332.13;;;18.63;nan
12054;BME280;5638;50.860;4.698;2022-10-17T07:24:06;101339.31;;;18.58;nan
12054;BME280;5638;50.860;4.698;2022-10-17T07:26:32;101358.63;;;18.55;nan
12054;BME280;5638;50.860;4.698;2022-10-17T07:28:58;101360.34;;;18.56;nan
12054;BME280;5638;50.860;4.698;2022-10-17T07:31:24;101377.03;;;18.77;nan
12054;BME280;5638;50.860;4.698;2022-10-17T07:33:50;101367.69;;;18.70;nan
12054;BME280;5638;50.860;4.698;2022-10-17T07:36:17;101366.91;;;18.66;nan
12054;BME280;5638;50.860;4.698;2022-10-17T07:38:43;101374.72;;;18.68;nan
12054;BME280;5638;50.860;4.698;2022-10-17T07:41:11;101379.28;;;18.63;nan
12054;BME280;5638;50.860;4.698;2022-10-17T07:43:37;101387.41;;;18.57;nan
12054;BME280;5638;50.860;4.698;2022-10-17T07:46:04;101384.41;;;18.44;nan
12054;BME280;5638;50.860;4.698;2022-10-17T07:48:31;101399.09;;;18.48;nan
12054;BME280;5638;50.860;4.698;2022-10-17T07:50:57;101412.25;;;18.47;nan
12054;BME280;5638;50.860;4.698;2022-10-17T07:53:22;101426.38;;;18.42;nan
12054;BME280;5638;50.860;4.698;2022-10-17T07:55:48;101408.47;;;18.32;nan
12054;BME280;5638;50.860;4.698;2022-10-17T07:58:16;101417.16;;;18.32;nan
12054;BME280;5638;50.860;4.698;2022-10-17T08:00:42;101428.50;;;18.33;nan
12054;BME280;5638;50.860;4.698;2022-10-17T08:03:09;101442.34;;;18.36;nan
12054;BME280;5638;50.860;4.698;2022-10-17T08:05:35;101444.16;;;18.34;nan
12054;BME280;5638;50.860;4.698;2022-10-17T08:08:01;101449.44;;;18.33;nan
12054;BME280;5638;50.860;4.698;2022-10-17T08:10:27;101441.66;;;18.31;nan
12054;BME280;5638;50.860;4.698;2022-10-17T08:12:56;101424.28;;;18.29;nan
12054;BME280;5638;50.860;4.698;2022-10-17T08:15:23;101426.06;;;18.28;nan
12054;BME280;5638;50.860;4.698;2022-10-17T08:17:49;101436.53;;;18.28;nan
12054;BME280;5638;50.860;4.698;2022-10-17T08:20:16;101436.47;;;18.30;nan
12054;BME280;5638;50.860;4.698;2022-10-17T08:22:42;101444.22;;;18.33;nan
12054;BME280;5638;50.860;4.698;2022-10-17T08:25:08;101452.91;;;18.33;nan
12054;BME280;5638;50.860;4.698;2022-10-17T08:27:34;101472.94;;;18.36;nan
12054;BME280;5638;50.860;4.698;2022-10-17T08:30:01;101513.59;;;18.46;nan
12054;BME280;5638;50.860;4.698;2022-10-17T08:32:28;101453.38;;;18.45;nan
12054;BME280;5638;50.860;4.698;2022-10-17T08:34:55;101502.63;;;18.35;nan
12054;BME280;5638;50.860;4.698;2022-10-17T08:37:22;101487.25;;;18.26;nan
12054;BME280;5638;50.860;4.698;2022-10-17T08:39:48;101457.13;;;18.14;nan
12054;BME280;5638;50.860;4.698;2022-10-17T08:45:51;101430.22;;;18.10;nan
12054;BME280;5638;50.860;4.698;2022-10-17T08:48:23;101435.31;;;18.13;nan
12054;BME280;5638;50.860;4.698;2022-10-17T08:51:04;101436.50;;;18.05;nan
12054;BME280;5638;50.860;4.698;2022-10-17T08:54:04;101403.41;;;17.79;nan
12054;BME280;5638;50.860;4.698;2022-10-17T08:56:48;101441.63;;;18.08;nan
12054;BME280;5638;50.860;4.698;2022-10-17T08:59:25;101423.06;;;18.14;nan
12054;BME280;5638;50.860;4.698;2022-10-17T09:08:48;101402.47;;;18.28;nan
12054;BME280;5638;50.860;4.698;2022-10-17T09:14:39;101407.25;;;18.17;nan
12054;BME280;5638;50.860;4.698;2022-10-17T09:17:32;101384.41;;;18.21;nan
12054;BME280;5638;50.860;4.698;2022-10-17T09:20:15;101397.44;;;18.22;nan
12054;BME280;5638;50.860;4.698;2022-10-17T09:23:23;101415.34;;;18.11;nan
12054;BME280;5638;50.860;4.698;2022-10-17T09:25:54;101437.19;;;18.10;nan
12054;BME280;5638;50.860;4.698;2022-10-17T09:28:38;101431.00;;;18.12;nan
12054;BME280;5638;50.860;4.698;2022-10-17T09:33:45;101434.56;;;18.10;nan
12054;BME280;5638;50.860;4.698;2022-10-17T09:36:19;101443.81;;;18.20;nan
12054;BME280;5638;50.860;4.698;2022-10-17T09:38:57;101451.88;;;18.14;nan
12054;BME280;5638;50.860;4.698;2022-10-17T09:41:50;101466.53;;;18.20;nan
12054;BME280;5638;50.860;4.698;2022-10-17T09:44:30;101475.25;;;18.20;nan
12054;BME280;5638;50.860;4.698;2022-10-17T09:49:49;101457.88;;;18.17;nan
12054;BME280;5638;50.860;4.698;2022-10-17T09:55:15;101467.59;;;18.14;nan
12054;BME280;5638;50.860;4.698;2022-10-17T09:58:04;101485.03;;;18.15;nan
12054;BME280;5638;50.860;4.698;2022-10-17T10:00:38;101492.75;;;18.18;nan
12054;BME280;5638;50.860;4.698;2022-10-17T10:03:26;101497.97;;;18.20;nan
12054;BME280;5638;50.860;4.698;2022-10-17T10:06:19;101501.44;;;18.20;nan
12054;BME280;5638;50.860;4.698;2022-10-17T10:08:55;101500.34;;;18.26;nan
12054;BME280;5638;50.860;4.698;2022-10-17T10:11:48;101511.38;;;18.35;nan
12054;BME280;5638;50.860;4.698;2022-10-17T10:14:34;101522.00;;;18.31;nan
12054;BME280;5638;50.860;4.698;2022-10-17T10:17:29;101524.69;;;18.29;nan
12054;BME280;5638;50.860;4.698;2022-10-17T10:19:58;101522.69;;;18.36;nan
12054;BME280;5638;50.860;4.698;2022-10-17T10:22:27;101523.81;;;18.29;nan
12054;BME280;5638;50.860;4.698;2022-10-17T10:25:20;101537.66;;;18.32;nan
12054;BME280;5638;50.860;4.698;2022-10-17T10:27:46;101534.19;;;18.32;nan
12054;BME280;5638;50.860;4.698;2022-10-17T10:30:28;101531.44;;;18.35;nan
12054;BME280;5638;50.860;4.698;2022-10-17T10:32:58;101538.41;;;18.36;nan
12054;BME280;5638;50.860;4.698;2022-10-17T10:35:37;101550.44;;;18.41;nan
12054;BME280;5638;50.860;4.698;2022-10-17T10:38:10;101546.91;;;18.42;nan
12054;BME280;5638;50.860;4.698;2022-10-17T10:40:51;101548.66;;;18.42;nan
12054;BME280;5638;50.860;4.698;2022-10-17T10:43:34;101560.66;;;18.49;nan
12054;BME280;5638;50.860;4.698;2022-10-17T10:46:26;101557.19;;;18.49;nan
12054;BME280;5638;50.860;4.698;2022-10-17T10:48:56;101549.41;;;18.46;nan
12054;BME280;5638;50.860;4.698;2022-10-17T10:51:42;101571.97;;;18.50;nan
12054;BME280;5638;50.860;4.698;2022-10-17T10:54:25;101561.66;;;18.45;nan
12054;BME280;5638;50.860;4.698;2022-10-17T10:56:58;101587.59;;;18.53;nan
12054;BME280;5638;50.860;4.698;2022-10-17T10:59:35;101595.47;;;18.53;nan
12054;BME280;5638;50.860;4.698;2022-10-17T11:02:20;101598.03;;;18.54;nan
12054;BME280;5638;50.860;4.698;2022-10-17T11:05:15;101598.09;;;18.53;nan
12054;BME280;5638;50.860;4.698;2022-10-17T11:08:05;101597.16;;;18.54;nan
12054;BME280;5638;50.860;4.698;2022-10-17T11:11:01;101598.19;;;18.50;nan
12054;BME280;5638;50.860;4.698;2022-10-17T11:13:57;101606.16;;;18.47;nan
12054;BME280;5638;50.860;4.698;2022-10-17T11:23:19;101607.31;;;18.63;nan
12054;BME280;5638;50.860;4.698;2022-10-17T11:25:50;101598.66;;;18.61;nan
12054;BME280;5638;50.860;4.698;2022-10-17T11:28:20;101604.94;;;18.57;nan
12054;BME280;5638;50.860;4.698;2022-10-17T11:31:02;101603.16;;;18.57;nan
12054;BME280;5638;50.860;4.698;2022-10-17T11:33:59;101604.28;;;18.50;nan
12054;BME280;5638;50.860;4.698;2022-10-17T11:36:31;101618.13;;;18.54;nan
12054;BME280;5638;50.860;4.698;2022-10-17T11:39:28;101616.44;;;18.53;nan
12054;BME280;5638;50.860;4.698;2022-10-17T11:42:02;101624.38;;;18.50;nan
12054;BME280;5638;50.860;4.698;2022-10-17T11:44:39;101626.16;;;18.49;nan
12054;BME280;5638;50.860;4.698;2022-10-17T11:47:43;101625.19;;;18.52;nan
12054;BME280;5638;50.860;4.698;2022-10-17T11:50:34;101633.69;;;18.58;nan
12054;BME280;5638;50.860;4.698;2022-10-17T11:53:18;101638.94;;;18.58;nan
12054;BME280;5638;50.860;4.698;2022-10-17T11:55:45;101642.31;;;18.62;nan
12054;BME280;5638;50.860;4.698;2022-10-17T11:58:35;101656.09;;;18.67;nan
12054;BME280;5638;50.860;4.698;2022-10-17T12:01:40;101625.34;;;18.47;nan
12054;BME280;5638;50.860;4.698;2022-10-17T12:04:44;101647.56;;;18.62;nan
12054;BME280;5638;50.860;4.698;2022-10-17T12:07:19;101656.19;;;18.64;nan
12054;BME280;5638;50.860;4.698;2022-10-17T12:12:51;101658.03;;;18.62;nan
12054;BME280;5638;50.860;4.698;2022-10-17T12:18:02;101670.44;;;18.57;nan
12054;BME280;5638;50.860;4.698;2022-10-17T12:20:31;101682.53;;;18.61;nan
12054;BME280;5638;50.860;4.698;2022-10-17T12:34:01;101677.72;;;18.49;nan
12054;BME280;5638;50.860;4.698;2022-10-17T12:55:18;101715.84;;;18.57;nan
12054;BME280;5638;50.860;4.698;2022-10-17T13:00:54;101728.81;;;18.62;nan
12054;BME280;5638;50.860;4.698;2022-10-17T13:03:42;101731.63;;;18.56;nan
12054;BME280;5638;50.860;4.698;2022-10-17T13:06:22;101722.03;;;18.55;nan
12054;BME280;5638;50.860;4.698;2022-10-17T13:09:04;101723.63;;;18.60;nan
12054;BME280;5638;50.860;4.698;2022-10-17T13:11:33;101734.84;;;18.64;nan
12054;BME280;5638;50.860;4.698;2022-10-17T13:14:09;101735.72;;;18.64;nan
12054;BME280;5638;50.860;4.698;2022-10-17T13:16:40;101725.34;;;18.61;nan
12054;BME280;5638;50.860;4.698;2022-10-17T13:19:19;101748.75;;;18.66;nan
12054;BME280;5638;50.860;4.698;2022-10-17T13:21:54;101756.56;;;18.67;nan
12054;BME280;5638;50.860;4.698;2022-10-17T13:26:58;101769.53;;;18.72;nan
12054;BME280;5638;50.860;4.698;2022-10-17T13:29:25;101776.91;;;18.87;nan
12054;BME280;5638;50.860;4.698;2022-10-17T13:32:03;101769.44;;;18.75;nan
12054;BME280;5638;50.860;4.698;2022-10-17T13:34:32;101777.91;;;18.83;nan
12054;BME280;5638;50.860;4.698;2022-10-17T13:37:05;101783.25;;;18.80;nan
12054;BME280;5638;50.860;4.698;2022-10-17T13:39:39;101781.59;;;18.78;nan
12054;BME280;5638;50.860;4.698;2022-10-17T13:44:47;101781.72;;;18.75;nan
12054;BME280;5638;50.860;4.698;2022-10-17T13:47:23;101795.56;;;18.78;nan
12054;BME280;5638;50.860;4.698;2022-10-17T13:49:50;101784.16;;;18.79;nan
12054;BME280;5638;50.860;4.698;2022-10-17T13:52:21;101778.22;;;18.74;nan
12054;BME280;5638;50.860;4.698;2022-10-17T13:54:50;101785.09;;;18.78;nan
12054;BME280;5638;50.860;4.698;2022-10-17T13:57:26;101789.22;;;18.85;nan
12054;BME280;5638;50.860;4.698;2022-10-17T14:00:05;101791.09;;;18.82;nan
12054;BME280;5638;50.860;4.698;2022-10-17T14:02:34;101796.28;;;18.83;nan
12054;BME280;5638;50.860;4.698;2022-10-17T14:07:51;101785.19;;;18.75;nan
12054;BME280;5638;50.860;4.698;2022-10-17T14:10:21;101780.03;;;18.72;nan
12054;BME280;5638;50.860;4.698;2022-10-17T14:12:50;101767.97;;;18.66;nan
12054;BME280;5638;50.860;4.698;2022-10-17T14:15:18;101788.03;;;18.67;nan
12054;BME280;5638;50.860;4.698;2022-10-17T14:17:58;101772.50;;;18.61;nan
12054;BME280;5638;50.860;4.698;2022-10-17T14:20:26;101786.38;;;18.65;nan
12054;BME280;5638;50.860;4.698;2022-10-17T14:22:55;101787.00;;;18.73;nan
12054;BME280;5638;50.860;4.698;2022-10-17T14:25:39;101788.88;;;18.70;nan
12054;BME280;5638;50.860;4.698;2022-10-17T14:30:42;101793.97;;;18.74;nan
12054;BME280;5638;50.860;4.698;2022-10-17T14:33:21;101806.06;;;18.78;nan
12054;BME280;5638;50.860;4.698;2022-10-17T14:35:53;101813.22;;;18.73;nan
12054;BME280;5638;50.860;4.698;2022-10-17T14:38:20;101821.56;;;18.84;nan
12054;BME280;5638;50.860;4.698;2022-10-17T14:40:52;101814.13;;;18.72;nan
12054;BME280;5638;50.860;4.698;2022-10-17T14:43:22;101826.78;;;18.86;nan
12054;BME280;5638;50.860;4.698;2022-10-17T14:45:50;101823.72;;;18.73;nan
12054;BME280;5638;50.860;4.698;2022-10-17T14:48:20;101835.91;;;18.74;nan
12054;BME280;5638;50.860;4.698;2022-10-17T14:51:16;101838.44;;;18.77;nan
12054;BME280;5638;50.860;4.698;2022-10-17T14:54:02;101833.38;;;18.71;nan
12054;BME280;5638;50.860;4.698;2022-10-17T14:56:42;101832.59;;;18.67;nan
12054;BME280;5638;50.860;4.698;2022-10-17T14:59:13;101836.84;;;18.72;nan
12054;BME280;5638;50.860;4.698;2022-10-17T15:01:42;101843.81;;;18.73;nan
12054;BME280;5638;50.860;4.698;2022-10-17T15:04:07;101838.63;;;18.71;nan
12054;BME280;5638;50.860;4.698;2022-10-17T15:06:35;101847.00;;;18.82;nan
12054;BME280;5638;50.860;4.698;2022-10-17T15:09:01;101848.88;;;18.79;nan
12054;BME280;5638;50.860;4.698;2022-10-17T15:11:27;101850.03;;;18.70;nan
12054;BME280;5638;50.860;4.698;2022-10-17T15:13:53;101863.13;;;18.70;nan
12054;BME280;5638;50.860;4.698;2022-10-17T15:16:26;101871.84;;;18.71;nan
12054;BME280;5638;50.860;4.698;2022-10-17T15:18:53;101870.34;;;18.62;nan
12054;BME280;5638;50.860;4.698;2022-10-17T15:21:22;101885.00;;;18.67;nan
12054;BME280;5638;50.860;4.698;2022-10-17T15:23:49;101886.00;;;18.65;nan
12054;BME280;5638;50.860;4.698;2022-10-17T15:26:20;101875.75;;;18.56;nan
12054;BME280;5638;50.860;4.698;2022-10-17T15:28:47;101880.88;;;18.60;nan
12054;BME280;5638;50.860;4.698;2022-10-17T15:31:20;101880.75;;;18.65;nan
12054;BME280;5638;50.860;4.698;2022-10-17T15:33:47;101887.84;;;18.61;nan
12054;BME280;5638;50.860;4.698;2022-10-17T15:36:33;101893.84;;;18.65;nan
12054;BME280;5638;50.860;4.698;2022-10-17T15:39:00;101881.63;;;18.64;nan
12054;BME280;5638;50.860;4.698;2022-10-17T15:41:29;101889.50;;;18.64;nan